Time;durP1;ratioP1;P1;durP2;ratioP2;P2;SDS_P1;SDS_P2;PMS_P1;PMS_P2;Temp;Humidity;BMP_temperature;BMP_pressure;BME280_temperature;BME280_humidity;BME280_pressure;Samples;Min_cycle;Max_cycle;Signal;HPM_P1;HPM_P2
2021/03/30 00:01:13;;;;;;;2.03;0.70;;;10.50;99.90;;;;;;4901884;29;20245;-93
2021/03/30 00:03:44;;;;;;;1.47;0.70;;;10.50;99.50;;;;;;4906096;29;20209;-92
2021/03/30 00:06:15;;;;;;;1.53;0.47;;;10.50;99.90;;;;;;4908419;29;20292;-92
2021/03/30 00:08:47;;;;;;;2.07;0.70;;;10.50;99.90;;;;;;4905514;29;20206;-92
2021/03/30 00:11:18;;;;;;;2.10;0.60;;;10.40;99.40;;;;;;4916698;29;20269;-92
2021/03/30 00:13:50;;;;;;;1.87;0.70;;;10.40;99.90;;;;;;4919821;29;20254;-93
2021/03/30 00:16:22;;;;;;;1.90;0.70;;;10.40;99.90;;;;;;4920530;29;20198;-94
2021/03/30 00:18:52;;;;;;;3.97;0.77;;;10.30;99.30;;;;;;4919495;29;20265;-92
2021/03/30 00:21:23;;;;;;;2.10;0.70;;;10.20;99.90;;;;;;4919797;29;20238;-93
2021/03/30 00:23:55;;;;;;;5.40;0.93;;;10.30;99.90;;;;;;4921218;29;20205;-93
2021/03/30 00:26:25;;;;;;;1.10;0.60;;;10.20;99.90;;;;;;4915715;29;20214;-92
2021/03/30 00:28:55;;;;;;;2.57;0.73;;;10.20;99.90;;;;;;4910838;29;20225;-93
2021/03/30 00:31:26;;;;;;;1.90;0.77;;;10.20;99.90;;;;;;4908490;29;20217;-92
2021/03/30 00:33:57;;;;;;;1.43;0.70;;;10.20;99.90;;;;;;4910650;29;20217;-93
2021/03/30 00:36:27;;;;;;;1.23;0.70;;;10.20;99.60;;;;;;4912163;29;20214;-93
2021/03/30 00:38:59;;;;;;;1.13;0.40;;;10.20;99.90;;;;;;4906368;29;20787;-93
2021/03/30 00:41:31;;;;;;;2.27;1.00;;;10.20;99.90;;;;;;4906670;29;20296;-93
2021/03/30 00:44:10;;;;;;;1.90;0.90;;;10.20;99.90;;;;;;4909190;29;20241;-92
2021/03/30 00:46:46;;;;;;;2.30;0.70;;;10.20;99.90;;;;;;4906562;29;20216;-93
2021/03/30 00:49:23;;;;;;;1.80;0.80;;;10.40;99.70;;;;;;4904672;29;20210;-92
2021/03/30 00:51:57;;;;;;;1.57;0.60;;;10.80;99.80;;;;;;4908694;29;20240;-93
2021/03/30 00:54:30;;;;;;;1.40;0.50;;;11.10;99.90;;;;;;4904238;29;20209;-93
2021/03/30 00:57:01;;;;;;;4.13;1.30;;;11.20;98.50;;;;;;4903069;29;20289;-93
2021/03/30 00:59:35;;;;;;;1.93;0.83;;;11.20;99.50;;;;;;4903774;29;20278;-91
2021/03/30 01:02:06;;;;;;;1.37;0.73;;;11.20;99.20;;;;;;4921731;29;20228;-92
2021/03/30 01:04:39;;;;;;;0.50;0.50;;;11.10;99.30;;;;;;4926118;29;20638;-91
2021/03/30 01:07:11;;;;;;;1.03;0.70;;;11.10;97.80;;;;;;4924819;29;20284;-92
2021/03/30 01:09:59;;;;;;;2.10;0.57;;;11.00;99.40;;;;;;4926695;29;20646;-92
2021/03/30 01:12:52;;;;;;;0.80;0.40;;;11.00;98.90;;;;;;4927297;29;20283;-92
2021/03/30 01:15:34;;;;;;;1.30;0.80;;;10.70;98.60;;;;;;4925641;29;20223;-93
2021/03/30 01:18:17;;;;;;;1.73;0.83;;;10.20;99.60;;;;;;4922931;29;20212;-95
2021/03/30 01:21:21;;;;;;;1.33;0.47;;;9.90;99.90;;;;;;4923081;29;20259;-91
2021/03/30 01:24:18;;;;;;;3.27;0.60;;;10.00;99.70;;;;;;4923569;29;20324;-90
2021/03/30 01:27:02;;;;;;;2.53;0.50;;;10.10;99.80;;;;;;4941520;29;20220;-90
2021/03/30 01:29:55;;;;;;;1.10;0.50;;;9.80;99.90;;;;;;4941065;29;20220;-90
2021/03/30 01:32:31;;;;;;;0.73;0.53;;;9.60;99.90;;;;;;4932661;29;20245;-90
2021/03/30 01:35:05;;;;;;;0.77;0.40;;;9.50;99.90;;;;;;4926063;29;20204;-92
2021/03/30 01:37:39;;;;;;;1.00;0.63;;;9.60;99.90;;;;;;4911331;29;20217;-92
2021/03/30 01:40:16;;;;;;;1.93;0.80;;;9.50;99.90;;;;;;4901761;29;20277;-94
2021/03/30 01:42:49;;;;;;;1.20;0.60;;;9.50;99.90;;;;;;4908977;29;20232;-93
2021/03/30 01:45:24;;;;;;;2.17;0.63;;;9.50;99.90;;;;;;4925356;29;20221;-93
2021/03/30 01:47:57;;;;;;;4.77;0.60;;;9.20;99.90;;;;;;4924716;29;20272;-93
2021/03/30 01:50:31;;;;;;;0.40;0.40;;;9.20;99.90;;;;;;4929900;29;20697;-93
2021/03/30 01:53:03;;;;;;;0.60;0.60;;;9.20;99.90;;;;;;4923458;29;21070;-93
2021/03/30 01:55:35;;;;;;;2.33;0.90;;;9.00;99.90;;;;;;4954594;28;20228;-93
2021/03/30 01:58:06;;;;;;;3.73;1.03;;;8.80;99.90;;;;;;4922685;29;20216;-94
2021/03/30 02:00:40;;;;;;;1.23;0.73;;;8.70;99.90;;;;;;4931894;29;20259;-90
2021/03/30 02:03:12;;;;;;;5.33;0.80;;;8.60;99.90;;;;;;4933008;29;20209;-92
2021/03/30 02:05:46;;;;;;;2.00;0.87;;;8.60;99.90;;;;;;4931572;29;20204;-90
2021/03/30 02:08:19;;;;;;;1.20;0.80;;;8.50;99.90;;;;;;4932763;29;20216;-91
2021/03/30 02:10:52;;;;;;;2.03;1.00;;;8.60;99.90;;;;;;4927442;29;20280;-93
2021/03/30 02:13:27;;;;;;;3.17;0.93;;;8.60;99.90;;;;;;4925818;29;20269;-93
2021/03/30 02:16:03;;;;;;;3.17;1.07;;;8.50;99.90;;;;;;4931269;29;20208;-93
2021/03/30 02:18:44;;;;;;;2.43;1.00;;;8.30;99.90;;;;;;4931893;29;20208;-93
2021/03/30 02:21:24;;;;;;;1.10;0.70;;;8.20;99.90;;;;;;4930285;29;20287;-93
2021/03/30 02:23:56;;;;;;;2.43;0.97;;;8.10;99.90;;;;;;4924746;29;20211;-93
2021/03/30 02:26:28;;;;;;;2.43;0.80;;;7.90;99.90;;;;;;4926667;29;20230;-93
2021/03/30 02:29:00;;;;;;;1.43;0.70;;;7.70;99.90;;;;;;4927105;29;20243;-93
2021/03/30 02:31:37;;;;;;;2.73;0.90;;;7.60;99.90;;;;;;4929411;29;20283;-92
2021/03/30 02:34:12;;;;;;;2.63;1.03;;;7.40;99.90;;;;;;4928462;29;20605;-93
2021/03/30 02:36:46;;;;;;;1.93;0.80;;;7.30;99.90;;;;;;4924320;29;20217;-93
2021/03/30 02:39:19;;;;;;;2.07;0.67;;;7.10;99.90;;;;;;4926434;29;20213;-93
2021/03/30 02:41:51;;;;;;;1.90;0.90;;;7.00;99.90;;;;;;4928605;29;20251;-92
2021/03/30 02:44:24;;;;;;;2.13;1.20;;;6.90;99.90;;;;;;4927865;29;20241;-93
2021/03/30 02:47:02;;;;;;;1.70;0.87;;;6.80;99.90;;;;;;4924221;29;20204;-93
2021/03/30 02:49:33;;;;;;;2.27;1.10;;;6.70;99.90;;;;;;4923234;29;20263;-93
2021/03/30 02:52:13;;;;;;;3.17;1.40;;;6.50;99.90;;;;;;4923872;29;20669;-93
2021/03/30 02:54:49;;;;;;;3.00;1.20;;;6.40;99.90;;;;;;4925058;29;20234;-93
2021/03/30 02:57:21;;;;;;;3.20;1.90;;;6.30;99.90;;;;;;4928230;29;20590;-93
2021/03/30 02:59:54;;;;;;;9.03;5.60;;;6.20;99.90;;;;;;4924659;29;20212;-94
2021/03/30 03:02:27;;;;;;;23.83;14.97;;;6.00;99.90;;;;;;4925895;29;20659;-93
2021/03/30 03:04:58;;;;;;;30.73;18.20;;;6.00;99.90;;;;;;4923658;29;20209;-92
2021/03/30 03:07:30;;;;;;;22.70;14.37;;;5.90;99.90;;;;;;4923025;29;20268;-92
2021/03/30 03:10:03;;;;;;;35.53;21.33;;;5.80;99.90;;;;;;4921682;29;20258;-92
2021/03/30 03:12:37;;;;;;;31.27;18.97;;;5.80;99.90;;;;;;4920940;29;20224;-93
2021/03/30 03:15:19;;;;;;;28.10;16.67;;;5.60;99.90;;;;;;4921340;29;20300;-93
2021/03/30 03:17:53;;;;;;;22.87;12.77;;;5.50;99.90;;;;;;4920666;29;20233;-91
2021/03/30 03:20:25;;;;;;;10.40;5.77;;;5.50;99.90;;;;;;4919890;29;20263;-92
2021/03/30 03:22:56;;;;;;;4.60;2.53;;;5.50;99.90;;;;;;4921224;29;20213;-92
2021/03/30 03:25:27;;;;;;;6.33;3.50;;;5.40;99.90;;;;;;4919447;29;20247;-92
2021/03/30 03:27:58;;;;;;;6.97;4.67;;;5.30;99.90;;;;;;4921120;29;20268;-92
2021/03/30 03:30:30;;;;;;;5.37;3.03;;;5.30;99.90;;;;;;4919831;29;20221;-92
2021/03/30 03:33:08;;;;;;;14.90;7.87;;;5.20;99.90;;;;;;4917671;29;20243;-93
2021/03/30 03:35:43;;;;;;;20.77;11.57;;;5.10;99.90;;;;;;4920539;29;20264;-92
2021/03/30 03:38:16;;;;;;;24.20;12.53;;;5.00;99.90;;;;;;4919903;29;20213;-92
2021/03/30 03:40:47;;;;;;;22.63;12.50;;;5.00;99.90;;;;;;4921679;29;20597;-94
2021/03/30 03:43:18;;;;;;;18.80;10.37;;;4.90;99.90;;;;;;4928337;29;20235;-93
2021/03/30 03:45:50;;;;;;;18.53;7.63;;;4.90;99.90;;;;;;4921088;29;20237;-94
2021/03/30 03:48:24;;;;;;;37.33;19.97;;;4.90;99.90;;;;;;4935801;29;20201;-92
2021/03/30 03:50:59;;;;;;;37.20;23.47;;;4.80;99.90;;;;;;4939476;29;20195;-93
2021/03/30 03:53:31;;;;;;;27.77;15.70;;;4.90;99.90;;;;;;4937791;29;20212;-92
2021/03/30 03:56:02;;;;;;;12.00;9.20;;;4.80;99.90;;;;;;4931725;29;20248;-92
2021/03/30 03:58:39;;;;;;;6.07;4.40;;;4.70;99.90;;;;;;4963493;28;20212;-94
2021/03/30 04:01:15;;;;;;;10.73;3.70;;;4.70;99.90;;;;;;4928810;29;20299;-93
2021/03/30 04:03:53;;;;;;;3.67;2.90;;;4.60;99.90;;;;;;4929964;29;20212;-93
2021/03/30 04:06:31;;;;;;;5.73;2.60;;;4.60;99.90;;;;;;4931262;29;20212;-94
2021/03/30 04:09:04;;;;;;;3.37;2.40;;;4.50;99.90;;;;;;4925158;29;20216;-91
2021/03/30 04:11:37;;;;;;;3.90;1.60;;;4.50;99.90;;;;;;4955065;29;20267;-91
2021/03/30 04:14:10;;;;;;;2.97;1.33;;;4.40;99.90;;;;;;4925110;29;20260;-91
2021/03/30 04:16:41;;;;;;;2.00;1.70;;;4.40;99.90;;;;;;4925328;29;20628;-91
2021/03/30 04:19:14;;;;;;;3.73;1.70;;;4.40;99.90;;;;;;4924111;29;20229;-92
2021/03/30 04:21:45;;;;;;;3.37;1.60;;;4.30;99.90;;;;;;4926738;29;20332;-91
2021/03/30 04:24:23;;;;;;;3.87;2.00;;;4.30;99.90;;;;;;4954197;28;20224;-92
2021/03/30 04:26:53;;;;;;;4.10;2.30;;;4.20;99.90;;;;;;4929424;29;20260;-92
2021/03/30 04:29:24;;;;;;;4.30;2.80;;;4.20;99.90;;;;;;4929692;29;20209;-93
2021/03/30 04:31:54;;;;;;;5.73;3.03;;;4.20;99.90;;;;;;4928990;29;20212;-92
2021/03/30 04:34:25;;;;;;;5.23;3.50;;;4.20;99.90;;;;;;4931767;29;20693;-91
2021/03/30 04:36:55;;;;;;;5.13;4.20;;;4.20;99.90;;;;;;4931572;29;20204;-93
2021/03/30 04:39:27;;;;;;;5.13;4.70;;;4.20;99.90;;;;;;4930969;29;20216;-91
2021/03/30 04:41:57;;;;;;;5.70;3.90;;;4.20;99.90;;;;;;4930929;29;20269;-92
2021/03/30 04:44:28;;;;;;;7.10;3.60;;;4.10;99.90;;;;;;4930902;29;20217;-92
2021/03/30 04:47:01;;;;;;;6.07;3.70;;;4.10;99.90;;;;;;4928006;29;20201;-93
2021/03/30 04:49:34;;;;;;;6.83;2.30;;;4.00;99.90;;;;;;4927492;29;20576;-93
2021/03/30 04:52:05;;;;;;;5.13;1.70;;;4.00;99.90;;;;;;4930450;29;20224;-93
2021/03/30 04:54:38;;;;;;;4.33;1.83;;;3.90;99.90;;;;;;4938208;28;20197;-91
2021/03/30 04:57:10;;;;;;;1.80;1.60;;;3.90;99.90;;;;;;4936583;29;20213;-90
2021/03/30 04:59:40;;;;;;;2.50;1.47;;;3.80;99.90;;;;;;4934869;29;20666;-90
2021/03/30 05:02:10;;;;;;;1.40;1.30;;;3.80;99.90;;;;;;4937776;29;20253;-90
2021/03/30 05:04:44;;;;;;;2.40;1.30;;;3.80;99.90;;;;;;4933938;29;20205;-93
2021/03/30 05:07:15;;;;;;;1.57;1.20;;;3.80;99.90;;;;;;4927228;29;20262;-93
2021/03/30 05:09:47;;;;;;;2.10;1.20;;;3.70;99.90;;;;;;4926613;29;20249;-92
2021/03/30 05:12:18;;;;;;;2.40;1.20;;;3.60;99.90;;;;;;4939349;29;20212;-93
2021/03/30 05:14:50;;;;;;;3.60;1.20;;;3.50;99.90;;;;;;4971142;28;20189;-91
2021/03/30 05:17:20;;;;;;;4.00;1.63;;;3.50;99.90;;;;;;4932651;29;20209;-91
2021/03/30 05:19:53;;;;;;;2.10;1.53;;;3.50;99.90;;;;;;4925038;29;20232;-92
2021/03/30 05:22:25;;;;;;;3.13;1.57;;;3.40;99.90;;;;;;4925821;29;20236;-93
2021/03/30 05:24:58;;;;;;;3.10;2.17;;;3.40;99.90;;;;;;4955139;28;20233;-91
2021/03/30 05:27:28;;;;;;;4.53;2.40;;;3.40;99.90;;;;;;4924165;29;20212;-92
2021/03/30 05:29:58;;;;;;;3.73;2.53;;;3.40;99.90;;;;;;4922811;29;20217;-92
2021/03/30 05:32:34;;;;;;;4.70;2.50;;;3.40;99.90;;;;;;4923470;29;20208;-92
2021/03/30 05:35:11;;;;;;;3.20;2.10;;;3.40;99.90;;;;;;4923401;29;20217;-93
2021/03/30 05:37:45;;;;;;;2.23;1.90;;;3.40;99.90;;;;;;4923607;29;20213;-92
2021/03/30 05:40:22;;;;;;;3.87;1.87;;;3.40;99.90;;;;;;4922859;29;20217;-92
2021/03/30 05:42:53;;;;;;;3.53;1.60;;;3.30;99.90;;;;;;4941210;29;20220;-93
2021/03/30 05:45:24;;;;;;;3.97;1.87;;;3.30;99.90;;;;;;4941797;29;20201;-94
2021/03/30 05:47:57;;;;;;;5.50;1.87;;;3.30;99.90;;;;;;4941219;29;20208;-93
2021/03/30 05:50:34;;;;;;;3.03;1.60;;;3.30;99.90;;;;;;4941057;29;20197;-93
2021/03/30 05:53:10;;;;;;;2.57;1.50;;;3.20;99.90;;;;;;4940290;29;20212;-93
2021/03/30 05:55:43;;;;;;;1.40;1.20;;;3.20;99.90;;;;;;4940626;29;20237;-92
2021/03/30 05:58:21;;;;;;;3.73;1.70;;;3.20;99.90;;;;;;4926163;29;20292;-94
2021/03/30 06:00:55;;;;;;;4.93;1.90;;;3.20;99.90;;;;;;4924126;29;20287;-93
2021/03/30 06:03:27;;;;;;;2.20;1.40;;;3.20;99.90;;;;;;4926896;29;20237;-94
2021/03/30 06:06:00;;;;;;;2.27;1.50;;;3.20;99.90;;;;;;4927453;29;20208;-94
2021/03/30 06:08:32;;;;;;;3.13;1.60;;;3.10;99.90;;;;;;4936254;29;20197;-93
2021/03/30 06:11:07;;;;;;;3.87;1.80;;;3.10;99.90;;;;;;4940838;29;20220;-93
2021/03/30 06:13:53;;;;;;;2.30;1.40;;;3.10;99.90;;;;;;4940011;29;20229;-92
2021/03/30 06:16:29;;;;;;;2.60;1.60;;;3.10;99.90;;;;;;4928430;29;20224;-93
2021/03/30 06:19:10;;;;;;;4.43;1.87;;;3.10;99.90;;;;;;4923582;29;20219;-94
2021/03/30 06:21:43;;;;;;;3.53;1.97;;;3.00;99.90;;;;;;4921050;29;20294;-92
2021/03/30 06:24:31;;;;;;;3.50;1.50;;;2.90;99.90;;;;;;4919999;29;20568;-93
2021/03/30 06:27:29;;;;;;;2.70;1.63;;;2.80;99.90;;;;;;4921411;29;20216;-93
2021/03/30 06:30:01;;;;;;;3.80;1.60;;;2.80;99.90;;;;;;4920839;29;20216;-93
2021/03/30 06:32:32;;;;;;;3.60;1.67;;;2.80;99.90;;;;;;4921869;29;20225;-93
2021/03/30 06:35:14;;;;;;;3.30;2.00;;;2.70;99.90;;;;;;4921591;29;20680;-93
2021/03/30 06:37:47;;;;;;;4.70;2.80;;;2.60;99.90;;;;;;4921541;29;20578;-92
2021/03/30 06:40:27;;;;;;;5.40;3.00;;;2.70;99.90;;;;;;4921092;29;20232;-93
2021/03/30 06:43:01;;;;;;;6.00;3.00;;;2.60;99.90;;;;;;4924840;29;20233;-93
2021/03/30 06:45:33;;;;;;;7.33;3.47;;;2.60;99.90;;;;;;4926555;29;20212;-94
2021/03/30 06:48:06;;;;;;;6.30;3.90;;;2.70;99.90;;;;;;4927921;29;20216;-97
2021/03/30 06:50:40;;;;;;;5.70;3.83;;;2.60;99.90;;;;;;4929547;29;20232;-94
2021/03/30 06:53:17;;;;;;;5.73;3.80;;;2.60;99.90;;;;;;4925767;29;20275;-94
2021/03/30 06:55:51;;;;;;;5.00;3.20;;;2.50;99.90;;;;;;4921758;29;20353;-93
2021/03/30 06:58:23;;;;;;;5.60;3.87;;;2.50;99.90;;;;;;4920902;29;20212;-93
2021/03/30 07:00:55;;;;;;;5.97;3.47;;;2.50;99.90;;;;;;4921921;29;20237;-94
2021/03/30 07:03:30;;;;;;;3.30;2.97;;;2.50;99.90;;;;;;4922171;29;20212;-93
2021/03/30 07:06:13;;;;;;;4.17;2.40;;;2.40;99.90;;;;;;4921092;29;20232;-93
2021/03/30 07:08:46;;;;;;;2.33;1.80;;;2.40;99.90;;;;;;4920901;29;20271;-94
2021/03/30 07:11:21;;;;;;;4.77;2.40;;;2.40;99.90;;;;;;4926936;29;20560;-93
2021/03/30 07:13:54;;;;;;;2.10;1.80;;;2.40;99.90;;;;;;4925939;29;20681;-93
2021/03/30 07:16:30;;;;;;;2.70;1.80;;;2.40;99.90;;;;;;4920917;29;20292;-92
2021/03/30 07:19:02;;;;;;;2.63;1.60;;;2.40;99.90;;;;;;4919596;29;20236;-92
2021/03/30 07:21:37;;;;;;;3.93;1.53;;;2.40;99.90;;;;;;4920035;29;20233;-93
2021/03/30 07:24:13;;;;;;;2.00;1.50;;;2.30;99.90;;;;;;4920431;29;20228;-92
2021/03/30 07:26:51;;;;;;;3.70;2.07;;;2.30;99.90;;;;;;4920676;29;20232;-93
2021/03/30 07:29:36;;;;;;;2.50;2.10;;;2.20;99.90;;;;;;4920889;29;20219;-93
2021/03/30 07:32:14;;;;;;;2.50;1.77;;;2.20;99.90;;;;;;4922594;29;20621;-93
2021/03/30 07:34:53;;;;;;;2.80;2.07;;;2.20;99.90;;;;;;4922989;29;20204;-92
2021/03/30 07:37:34;;;;;;;1.80;1.57;;;2.10;99.90;;;;;;4905873;29;20211;-93
2021/03/30 07:40:10;;;;;;;2.73;1.57;;;2.10;99.90;;;;;;4923277;29;20253;-92
2021/03/30 07:42:43;;;;;;;2.80;1.40;;;2.10;99.90;;;;;;4922189;29;20244;-93
2021/03/30 07:45:17;;;;;;;1.57;1.17;;;2.10;99.90;;;;;;4906367;29;20588;-91
2021/03/30 07:47:49;;;;;;;2.90;1.40;;;2.10;99.90;;;;;;4934883;29;20201;-91
2021/03/30 07:50:25;;;;;;;4.10;1.20;;;2.20;99.90;;;;;;4932036;29;20276;-93
2021/03/30 07:52:56;;;;;;;2.67;1.40;;;2.20;99.90;;;;;;4934538;29;20196;-90
2021/03/30 07:55:29;;;;;;;1.67;0.97;;;2.20;99.90;;;;;;4933370;29;20209;-90
2021/03/30 07:58:10;;;;;;;4.37;1.37;;;2.20;99.90;;;;;;4925588;29;20223;-93
2021/03/30 08:00:52;;;;;;;3.43;1.23;;;2.20;99.90;;;;;;4915936;29;20249;-94
2021/03/30 08:03:28;;;;;;;1.63;1.40;;;2.20;99.90;;;;;;4920080;29;20240;-94
2021/03/30 08:06:25;;;;;;;5.73;1.93;;;2.20;99.90;;;;;;4919279;29;20215;-92
2021/03/30 08:09:16;;;;;;;1.97;1.50;;;2.20;99.90;;;;;;4920113;29;20303;-93
2021/03/30 08:11:53;;;;;;;2.70;1.50;;;2.20;99.90;;;;;;4920208;29;20237;-93
2021/03/30 08:14:40;;;;;;;2.03;1.27;;;2.10;99.90;;;;;;4920344;29;20205;-95
2021/03/30 08:17:21;;;;;;;3.87;1.50;;;2.10;99.90;;;;;;4919970;29;20216;-93
2021/03/30 08:20:00;;;;;;;3.17;1.23;;;2.00;99.90;;;;;;4903021;29;20245;-93
2021/03/30 08:23:01;;;;;;;1.93;1.33;;;1.90;99.90;;;;;;4919554;29;20542;-91
2021/03/30 08:25:40;;;;;;;3.40;1.67;;;1.90;99.90;;;;;;4927816;29;20247;-94
2021/03/30 08:28:32;;;;;;;2.20;1.33;;;1.90;99.90;;;;;;4938040;29;20212;-95
2021/03/30 08:31:04;;;;;;;3.33;1.30;;;1.90;99.90;;;;;;4938758;29;20205;-94
2021/03/30 08:33:37;;;;;;;3.00;1.60;;;1.80;99.90;;;;;;4922030;29;20712;-94
2021/03/30 08:36:35;;;;;;;3.03;1.33;;;1.70;99.90;;;;;;4920144;29;20212;-92
2021/03/30 08:39:08;;;;;;;2.93;1.37;;;1.60;99.90;;;;;;4919730;29;20213;-93
2021/03/30 08:41:54;;;;;;;2.20;1.13;;;1.60;99.90;;;;;;4922884;29;20232;-92
2021/03/30 08:44:56;;;;;;;2.53;1.33;;;1.60;99.90;;;;;;4926622;29;20216;-94
2021/03/30 08:47:36;;;;;;;4.73;1.70;;;1.60;99.90;;;;;;4929548;29;20745;-93
2021/03/30 08:50:27;;;;;;;2.13;1.50;;;1.40;99.90;;;;;;4930974;29;20209;-93
2021/03/30 08:53:00;;;;;;;2.43;1.43;;;1.30;99.90;;;;;;4932213;29;20215;-93
2021/03/30 08:55:39;;;;;;;3.50;1.77;;;1.30;99.90;;;;;;4932448;29;20228;-93
2021/03/30 08:58:14;;;;;;;3.83;1.83;;;1.30;99.90;;;;;;4928752;29;20215;-93
2021/03/30 09:00:51;;;;;;;3.37;2.00;;;1.30;99.90;;;;;;4924861;29;20244;-93
2021/03/30 09:03:27;;;;;;;3.77;1.57;;;1.30;99.90;;;;;;4921618;29;20264;-93
2021/03/30 09:06:00;;;;;;;4.03;1.60;;;1.30;99.90;;;;;;4923902;29;20679;-92
2021/03/30 09:08:40;;;;;;;2.70;1.43;;;1.30;99.90;;;;;;4921343;29;20219;-93
2021/03/30 09:11:19;;;;;;;3.47;1.93;;;1.20;99.90;;;;;;4924525;29;20213;-93
2021/03/30 09:14:02;;;;;;;2.07;1.23;;;1.20;99.90;;;;;;4922838;29;20217;-95
2021/03/30 09:16:36;;;;;;;2.37;1.57;;;1.10;99.90;;;;;;4922146;29;20212;-93
2021/03/30 09:19:28;;;;;;;4.03;1.90;;;1.20;99.90;;;;;;4913348;29;20217;-93
2021/03/30 09:22:01;;;;;;;2.50;1.70;;;1.20;99.90;;;;;;4912690;29;20272;-93
2021/03/30 09:27:22;;;;;;;3.03;2.20;;;1.00;99.90;;;;;;4921342;29;20209;-94
2021/03/30 09:29:55;;;;;;;3.20;2.10;;;0.90;99.90;;;;;;4923853;29;20208;-94
2021/03/30 09:32:35;;;;;;;3.97;2.10;;;0.90;99.90;;;;;;4923884;29;20314;-94
2021/03/30 09:35:13;;;;;;;4.30;1.90;;;0.90;99.90;;;;;;4922814;29;20300;-93
2021/03/30 09:37:48;;;;;;;3.20;2.03;;;0.90;99.90;;;;;;4921997;29;20203;-93
2021/03/30 09:40:21;;;;;;;4.37;1.83;;;0.90;99.90;;;;;;4921010;29;20228;-92
2021/03/30 09:42:53;;;;;;;1.90;1.70;;;0.90;99.90;;;;;;4926094;29;20243;-93
2021/03/30 09:45:37;;;;;;;4.20;2.20;;;1.00;99.90;;;;;;4921715;29;20208;-93
2021/03/30 09:48:13;;;;;;;4.07;2.10;;;0.90;99.90;;;;;;4923820;29;20591;-93
2021/03/30 09:50:46;;;;;;;3.27;2.00;;;0.90;99.90;;;;;;4924346;29;20225;-93
2021/03/30 09:53:20;;;;;;;3.77;2.00;;;0.90;99.90;;;;;;4913685;29;20232;-94
2021/03/30 09:55:51;;;;;;;3.07;2.20;;;0.80;99.90;;;;;;4905389;29;20292;-92
2021/03/30 09:58:24;;;;;;;2.60;1.93;;;0.80;99.90;;;;;;4904626;29;20228;-94
2021/03/30 10:00:57;;;;;;;1.93;1.73;;;0.90;99.90;;;;;;4918749;29;20277;-92
2021/03/30 10:03:30;;;;;;;4.23;2.20;;;0.80;99.90;;;;;;4925422;29;20250;-93
2021/03/30 10:06:17;;;;;;;2.60;1.67;;;0.80;99.90;;;;;;4926287;29;20217;-93
2021/03/30 10:08:50;;;;;;;3.73;1.77;;;0.80;99.90;;;;;;4927289;29;20224;-93
2021/03/30 10:11:31;;;;;;;4.13;1.90;;;0.80;99.90;;;;;;4925493;29;20237;-93
2021/03/30 10:14:23;;;;;;;3.07;1.80;;;0.80;99.90;;;;;;4926533;29;20211;-94
2021/03/30 10:17:03;;;;;;;3.27;1.60;;;0.70;99.90;;;;;;4927045;29;20280;-94
2021/03/30 10:19:53;;;;;;;4.20;2.00;;;0.80;99.90;;;;;;4924549;29;20276;-93
2021/03/30 10:22:26;;;;;;;3.20;1.70;;;0.70;99.90;;;;;;4922562;29;20237;-94
2021/03/30 10:25:16;;;;;;;2.20;1.70;;;0.70;99.90;;;;;;4923147;29;20204;-93
2021/03/30 10:27:53;;;;;;;3.30;1.70;;;0.70;99.90;;;;;;4920951;29;20228;-93
2021/03/30 10:30:43;;;;;;;4.90;1.50;;;0.70;99.90;;;;;;4921486;29;20260;-94
2021/03/30 10:33:17;;;;;;;3.53;1.53;;;0.70;99.90;;;;;;4923452;29;20212;-92
2021/03/30 10:35:51;;;;;;;4.00;1.70;;;0.70;99.90;;;;;;4929472;29;20228;-92
2021/03/30 10:38:21;;;;;;;2.77;1.80;;;0.70;99.90;;;;;;4937609;29;20245;-91
2021/03/30 10:41:06;;;;;;;2.77;1.70;;;0.60;99.90;;;;;;4937865;29;20277;-90
2021/03/30 10:43:39;;;;;;;4.20;1.73;;;0.70;99.90;;;;;;4939300;29;20244;-93
2021/03/30 10:46:31;;;;;;;2.93;1.87;;;0.70;99.90;;;;;;4939438;29;20224;-94
2021/03/30 10:49:06;;;;;;;2.67;1.50;;;0.70;99.90;;;;;;4936863;29;20209;-95
2021/03/30 10:51:56;;;;;;;3.80;1.90;;;0.70;99.90;;;;;;4940129;29;20211;-94
2021/03/30 10:54:27;;;;;;;4.97;2.00;;;0.60;99.90;;;;;;4931872;29;20306;-93
2021/03/30 10:57:00;;;;;;;2.57;1.60;;;0.60;99.90;;;;;;4929090;29;20241;-92
2021/03/30 10:59:31;;;;;;;2.53;1.53;;;0.60;99.90;;;;;;4926525;29;20268;-94
2021/03/30 11:02:02;;;;;;;2.40;2.07;;;0.60;99.90;;;;;;4927755;29;20244;-92
2021/03/30 11:04:36;;;;;;;2.43;1.60;;;0.60;99.90;;;;;;4930095;29;20213;-93
2021/03/30 11:07:10;;;;;;;2.40;1.57;;;0.60;99.90;;;;;;4926291;29;20288;-93
2021/03/30 11:09:43;;;;;;;3.60;1.83;;;0.60;99.90;;;;;;4928292;29;20252;-93
2021/03/30 11:12:18;;;;;;;5.43;1.77;;;0.60;99.90;;;;;;4925282;29;20205;-94
2021/03/30 11:17:48;;;;;;;3.50;2.20;;;0.70;99.90;;;;;;4930227;29;20243;-92
2021/03/30 11:20:24;;;;;;;4.20;1.90;;;0.70;99.90;;;;;;4912824;29;20227;-93
2021/03/30 11:23:09;;;;;;;2.87;1.97;;;0.80;99.90;;;;;;4931615;29;20241;-93
2021/03/30 11:25:43;;;;;;;4.83;1.70;;;0.80;99.90;;;;;;4939966;29;20205;-94
2021/03/30 11:28:16;;;;;;;3.10;1.60;;;0.80;99.90;;;;;;4938039;29;20219;-93
2021/03/30 11:30:48;;;;;;;3.40;1.60;;;0.90;99.90;;;;;;4939813;29;20227;-93
2021/03/30 11:33:22;;;;;;;2.93;1.80;;;0.90;99.90;;;;;;4939778;29;20233;-93
2021/03/30 11:35:56;;;;;;;6.03;2.10;;;0.90;99.90;;;;;;4937854;29;20203;-90
2021/03/30 11:38:31;;;;;;;3.30;1.43;;;0.90;99.90;;;;;;4936370;29;20713;-93
2021/03/30 11:41:07;;;;;;;2.13;1.47;;;0.90;99.90;;;;;;4928623;29;20565;-93
2021/03/30 11:43:41;;;;;;;3.57;2.23;;;0.90;99.90;;;;;;4921460;29;20265;-94
2021/03/30 11:46:13;;;;;;;4.37;1.73;;;0.80;99.90;;;;;;4921417;29;20277;-93
2021/03/30 11:48:43;;;;;;;2.30;1.57;;;0.80;99.90;;;;;;4918729;29;20264;-92
2021/03/30 11:51:14;;;;;;;2.80;1.67;;;0.90;99.90;;;;;;4920281;29;20559;-92
2021/03/30 11:53:48;;;;;;;2.17;1.63;;;0.90;99.90;;;;;;4919882;29;20213;-93
2021/03/30 11:56:18;;;;;;;1.87;1.43;;;1.00;99.90;;;;;;4919818;29;20269;-92
2021/03/30 11:58:53;;;;;;;5.50;1.67;;;1.00;99.90;;;;;;4919592;29;20260;-93
2021/03/30 12:01:27;;;;;;;3.40;1.70;;;1.10;99.90;;;;;;4918243;29;20244;-92
2021/03/30 12:04:00;;;;;;;4.03;1.63;;;1.20;99.90;;;;;;4919754;29;20268;-93
2021/03/30 12:06:31;;;;;;;3.13;1.87;;;1.20;99.90;;;;;;4919188;29;20272;-93
2021/03/30 12:09:05;;;;;;;3.07;1.70;;;1.20;99.90;;;;;;4918369;29;20240;-92
2021/03/30 12:11:36;;;;;;;4.10;1.53;;;1.30;99.90;;;;;;4919373;29;20216;-92
2021/03/30 12:14:10;;;;;;;2.50;1.57;;;1.30;99.90;;;;;;4918157;29;20311;-92
2021/03/30 12:16:41;;;;;;;2.33;1.77;;;1.30;99.90;;;;;;4919641;29;20606;-94
2021/03/30 12:19:14;;;;;;;3.97;1.43;;;1.30;99.90;;;;;;4923192;29;20311;-94
2021/03/30 12:21:54;;;;;;;2.77;1.60;;;1.40;99.90;;;;;;4922481;29;20217;-93
2021/03/30 12:24:26;;;;;;;1.70;1.33;;;1.40;99.90;;;;;;4922597;29;20239;-93
2021/03/30 12:26:58;;;;;;;3.10;1.37;;;1.40;99.90;;;;;;4923368;29;20280;-95
2021/03/30 12:29:32;;;;;;;2.30;1.37;;;1.40;99.90;;;;;;4922313;29;20223;-94
2021/03/30 12:32:05;;;;;;;2.57;1.37;;;1.40;99.90;;;;;;4923341;29;20212;-93
2021/03/30 12:34:38;;;;;;;2.40;1.77;;;1.40;99.90;;;;;;4921649;29;20284;-94
2021/03/30 12:37:09;;;;;;;2.57;1.40;;;1.40;99.90;;;;;;4924102;29;20257;-92
2021/03/30 12:39:47;;;;;;;2.00;1.47;;;1.20;99.90;;;;;;4922991;29;20209;-93
2021/03/30 12:42:19;;;;;;;1.70;1.20;;;1.20;99.90;;;;;;4922592;29;20323;-94
2021/03/30 12:44:53;;;;;;;4.50;1.60;;;1.20;99.90;;;;;;4921964;29;20739;-93
2021/03/30 12:47:25;;;;;;;2.23;1.50;;;1.10;99.90;;;;;;4922886;29;20217;-93
2021/03/30 12:49:56;;;;;;;2.43;1.60;;;1.10;99.90;;;;;;4922293;29;20249;-92
2021/03/30 12:52:27;;;;;;;3.60;1.40;;;1.10;99.90;;;;;;4923070;29;20212;-93
2021/03/30 12:55:06;;;;;;;3.13;1.70;;;1.10;99.90;;;;;;4922546;29;20260;-93
2021/03/30 12:57:39;;;;;;;2.37;1.37;;;1.00;99.90;;;;;;4923598;29;20315;-93
2021/03/30 13:00:11;;;;;;;3.77;1.67;;;1.10;99.90;;;;;;4930970;29;20209;-93
2021/03/30 13:02:44;;;;;;;3.93;1.70;;;1.10;99.90;;;;;;4939844;29;20233;-92
2021/03/30 13:05:17;;;;;;;3.17;1.60;;;1.00;99.90;;;;;;4922760;29;20198;-91
2021/03/30 13:07:49;;;;;;;2.70;1.53;;;1.00;99.90;;;;;;4921074;29;20209;-93
2021/03/30 13:10:21;;;;;;;3.37;1.30;;;1.10;99.90;;;;;;4918294;28;20201;-93
2021/03/30 13:12:52;;;;;;;3.47;1.60;;;1.10;99.90;;;;;;4910836;29;20214;-92
2021/03/30 13:15:28;;;;;;;3.20;1.87;;;1.10;99.90;;;;;;4956714;28;20219;-93
2021/03/30 13:17:59;;;;;;;1.67;1.50;;;1.10;99.90;;;;;;4929431;29;20264;-93
2021/03/30 13:20:31;;;;;;;5.00;1.37;;;1.10;99.90;;;;;;4928133;29;20221;-94
2021/03/30 13:23:02;;;;;;;2.70;1.33;;;1.20;99.90;;;;;;4930468;29;20701;-93
2021/03/30 13:25:35;;;;;;;3.07;1.70;;;1.10;99.90;;;;;;4927255;29;20213;-93
2021/03/30 13:28:09;;;;;;;5.13;1.90;;;1.10;99.90;;;;;;4931638;29;20209;-92
2021/03/30 13:30:43;;;;;;;1.57;1.30;;;1.10;99.90;;;;;;4939813;29;20263;-92
2021/03/30 13:33:19;;;;;;;2.13;1.60;;;1.00;99.90;;;;;;4940434;29;20241;-89
2021/03/30 13:35:54;;;;;;;2.97;1.90;;;1.00;99.90;;;;;;4941076;29;20220;-90
2021/03/30 13:38:25;;;;;;;2.87;1.50;;;0.90;99.90;;;;;;4940009;29;20225;-92
2021/03/30 13:40:57;;;;;;;4.53;1.60;;;0.90;99.90;;;;;;4927119;29;20216;-93
2021/03/30 13:43:44;;;;;;;4.27;1.63;;;1.00;99.90;;;;;;4922687;29;20300;-93